createdAt,value
2023-11-23T00:01:37.685Z,28.67
2023-11-23T00:04:05.470Z,27.75
2023-11-23T00:06:37.876Z,26.50
2023-11-23T00:09:13.346Z,24.13
2023-11-23T00:14:58.400Z,24.73
2023-11-23T00:17:23.981Z,24.10
2023-11-23T00:20:00.562Z,21.27
2023-11-23T00:22:27.864Z,20.50
2023-11-23T00:25:06.342Z,19.77
2023-11-23T00:27:37.536Z,20.77
2023-11-23T00:30:33.148Z,20.58
2023-11-23T00:33:34.056Z,23.05
2023-11-23T00:36:09.132Z,25.85
2023-11-23T00:38:42.498Z,27.33
2023-11-23T00:42:36.502Z,27.75
2023-11-23T00:45:40.848Z,28.98
2023-11-23T00:49:09.981Z,31.07
2023-11-23T00:52:19.174Z,30.60
2023-11-23T00:54:48.757Z,29.95
2023-11-23T00:57:24.719Z,32.65
2023-11-23T00:59:55.849Z,31.83
2023-11-23T01:03:20.859Z,31.20
2023-11-23T01:05:57.071Z,27.55
2023-11-23T01:09:12.814Z,27.27
2023-11-23T01:12:06.767Z,33.13
2023-11-23T01:14:42.674Z,29.63
2023-11-23T01:20:24.465Z,34.40
2023-11-23T01:25:34.543Z,37.95
2023-11-23T01:28:48.996Z,36.15
2023-11-23T01:31:27.365Z,30.42
2023-11-23T01:34:02.630Z,26.73
2023-11-23T01:36:33.621Z,26.77
2023-11-23T01:39:04.314Z,25.17
2023-11-23T01:41:37.863Z,25.08
2023-11-23T01:44:28.818Z,26.75
2023-11-23T01:47:53.763Z,27.85
2023-11-23T01:51:52.843Z,28.17
2023-11-23T01:55:16.555Z,26.98
2023-11-23T01:59:00.420Z,26.40
2023-11-23T02:06:50.402Z,26.40
2023-11-23T02:10:20.151Z,27.23
2023-11-23T02:14:35.739Z,29.13
2023-11-23T02:18:33.959Z,30.67
2023-11-23T02:22:08.502Z,28.48
2023-11-23T02:33:57.926Z,26.80
2023-11-23T02:38:11.202Z,24.98
2023-11-23T02:41:29.688Z,24.45
2023-11-23T02:45:17.376Z,25.00
2023-11-23T02:47:52.659Z,26.20
2023-11-23T02:56:56.853Z,29.42
2023-11-23T02:59:48.470Z,27.73
2023-11-23T03:02:29.199Z,27.70
2023-11-23T03:05:01.989Z,28.83
2023-11-23T03:07:55.350Z,29.85
2023-11-23T03:10:37.524Z,28.77
2023-11-23T03:13:13.453Z,29.58
2023-11-23T03:16:42.760Z,29.38
2023-11-23T03:19:51.706Z,35.45
2023-11-23T03:22:29.483Z,40.92
2023-11-23T03:25:31.422Z,56.03
2023-11-23T03:28:10.501Z,59.35
2023-11-23T03:30:44.585Z,52.05
2023-11-23T03:35:51.968Z,50.78
2023-11-23T03:38:19.670Z,41.88
2023-11-23T03:41:02.548Z,65.30
2023-11-23T03:43:32.035Z,47.33
2023-11-23T03:46:23.490Z,32.60
2023-11-23T03:48:57.414Z,35.33
2023-11-23T03:51:27.553Z,40.20
2023-11-23T03:56:56.950Z,62.80
2023-11-23T03:59:31.745Z,62.10
2023-11-23T04:01:58.834Z,42.30
2023-11-23T04:04:34.946Z,46.45
2023-11-23T04:07:14.657Z,49.47
2023-11-23T04:09:42.102Z,35.05
2023-11-23T04:12:21.878Z,31.88
2023-11-23T04:15:03.694Z,32.45
2023-11-23T04:17:42.029Z,31.42
2023-11-23T04:20:50.390Z,28.38
2023-11-23T04:23:17.799Z,27.15
2023-11-23T04:25:47.893Z,27.88
2023-11-23T04:28:15.023Z,24.90
2023-11-23T04:30:45.112Z,24.95
2023-11-23T04:33:12.749Z,23.10
2023-11-23T04:35:46.054Z,22.77
2023-11-23T04:38:16.027Z,22.97
2023-11-23T04:40:43.173Z,23.88
2023-11-23T04:43:10.168Z,24.67
2023-11-23T04:45:37.151Z,28.13
2023-11-23T04:48:06.163Z,28.90
2023-11-23T04:50:34.557Z,31.63
2023-11-23T04:53:01.906Z,26.05
2023-11-23T04:55:31.996Z,26.83
2023-11-23T04:57:59.095Z,30.17
2023-11-23T05:00:27.395Z,30.65
2023-11-23T05:02:55.646Z,31.23
2023-11-23T05:05:22.904Z,33.78
2023-11-23T05:07:50.552Z,35.72
2023-11-23T05:10:19.059Z,41.17
2023-11-23T05:12:51.551Z,39.28
2023-11-23T05:15:22.724Z,42.55
2023-11-23T05:17:56.783Z,39.55
2023-11-23T05:20:27.050Z,36.85
2023-11-23T05:22:54.407Z,33.42
2023-11-23T05:25:30.186Z,32.33
2023-11-23T05:28:03.135Z,40.88
2023-11-23T05:30:34.056Z,30.50
2023-11-23T05:33:06.598Z,29.42
2023-11-23T05:35:40.034Z,28.23
2023-11-23T05:38:13.139Z,30.40
2023-11-23T05:40:58.167Z,29.65
2023-11-23T05:43:29.461Z,89.47
2023-11-23T05:46:05.858Z,73.15
2023-11-23T05:48:39.138Z,124.03
2023-11-23T05:51:10.814Z,59.33
2023-11-23T05:53:49.974Z,44.90
2023-11-23T05:56:37.408Z,81.85
2023-11-23T05:59:04.892Z,55.13
2023-11-23T06:01:32.772Z,43.78
2023-11-23T06:04:05.612Z,49.13
2023-11-23T06:06:35.900Z,44.38
2023-11-23T06:09:10.939Z,40.15
2023-11-23T06:11:38.269Z,38.33
2023-11-23T06:14:06.058Z,37.88
2023-11-23T06:16:33.430Z,44.25
2023-11-23T06:19:03.571Z,40.17
2023-11-23T06:21:34.729Z,38.88
2023-11-23T06:24:01.983Z,39.58
2023-11-23T06:26:33.153Z,42.53
2023-11-23T06:29:01.086Z,41.40
2023-11-23T06:31:28.934Z,34.03
2023-11-23T06:33:56.144Z,44.10
2023-11-23T06:36:23.362Z,35.35
2023-11-23T06:38:53.999Z,35.70
2023-11-23T06:41:26.967Z,39.30
2023-11-23T06:43:54.633Z,34.67
2023-11-23T06:46:22.153Z,33.88
2023-11-23T06:48:49.303Z,38.97
2023-11-23T06:51:16.686Z,34.40
2023-11-23T06:53:47.994Z,34.67
2023-11-23T06:56:18.798Z,31.70
2023-11-23T06:58:49.379Z,28.98
2023-11-23T07:01:17.136Z,23.83
2023-11-23T07:03:48.087Z,23.10
2023-11-23T07:06:15.491Z,23.85
2023-11-23T07:08:42.899Z,24.30
2023-11-23T07:11:14.261Z,24.13
2023-11-23T07:13:44.852Z,22.35
2023-11-23T07:16:18.971Z,19.83
2023-11-23T07:18:54.045Z,35.03
2023-11-23T07:21:36.776Z,57.05
2023-11-23T07:24:13.323Z,48.95
2023-11-23T07:26:40.779Z,43.35
2023-11-23T07:29:07.950Z,34.15
2023-11-23T07:31:34.975Z,39.10
2023-11-23T07:34:07.329Z,25.58
2023-11-23T07:36:55.226Z,24.08
2023-11-23T07:39:48.657Z,27.05
2023-11-23T07:42:17.332Z,21.58
2023-11-23T07:44:50.557Z,20.52
2023-11-23T07:47:17.572Z,20.75
2023-11-23T07:49:47.293Z,19.30
2023-11-23T07:52:16.189Z,16.90
2023-11-23T07:54:45.850Z,16.90
2023-11-23T07:57:13.017Z,21.83
2023-11-23T07:59:40.497Z,19.60
2023-11-23T08:02:07.839Z,17.95
2023-11-23T08:04:35.221Z,15.50
2023-11-23T08:07:02.747Z,15.00
2023-11-23T08:09:30.255Z,15.40
2023-11-23T08:11:58.422Z,13.20
2023-11-23T08:14:25.205Z,12.25
2023-11-23T08:16:52.049Z,13.05
2023-11-23T08:19:19.555Z,11.73
2023-11-23T08:21:49.160Z,11.88
2023-11-23T08:24:18.164Z,12.88
2023-11-23T08:26:45.401Z,11.77
2023-11-23T08:29:12.908Z,12.10
2023-11-23T08:31:40.930Z,12.65
2023-11-23T08:34:09.151Z,12.30
2023-11-23T08:36:37.327Z,14.32
2023-11-23T08:39:06.260Z,16.55
2023-11-23T08:41:33.241Z,15.48
2023-11-23T08:44:00.919Z,16.52
2023-11-23T08:46:28.569Z,15.85
2023-11-23T08:48:55.860Z,15.52
2023-11-23T08:51:23.601Z,16.20
2023-11-23T08:53:51.199Z,15.18
2023-11-23T08:56:18.492Z,14.73
2023-11-23T08:58:45.573Z,15.68
2023-11-23T09:01:12.758Z,14.63
2023-11-23T09:03:39.965Z,15.50
2023-11-23T09:06:07.194Z,16.55
2023-11-23T09:08:34.046Z,14.68
2023-11-23T09:11:00.786Z,14.52
2023-11-23T09:13:28.110Z,15.02
2023-11-23T09:15:55.518Z,15.20
2023-11-23T09:18:23.289Z,14.68
2023-11-23T09:21:01.074Z,14.35
2023-11-23T09:23:29.271Z,18.08
2023-11-23T09:25:56.341Z,17.08
2023-11-23T09:28:23.516Z,28.50
2023-11-23T09:30:50.310Z,31.27
2023-11-23T09:33:20.208Z,29.20
2023-11-23T09:35:47.770Z,122.72
2023-11-23T09:38:14.731Z,26.30
2023-11-23T09:40:44.647Z,22.00
2023-11-23T09:43:12.243Z,21.25
2023-11-23T09:45:39.928Z,21.33
2023-11-23T09:48:08.745Z,23.08
2023-11-23T09:50:39.017Z,21.55
2023-11-23T09:53:09.254Z,22.80
2023-11-23T09:55:36.260Z,21.77
2023-11-23T09:58:05.893Z,20.27
2023-11-23T10:00:36.522Z,21.17
2023-11-23T10:03:08.383Z,21.13
2023-11-23T10:05:35.960Z,21.38
2023-11-23T10:08:03.727Z,21.10
2023-11-23T10:10:30.863Z,22.38
2023-11-23T10:12:57.635Z,21.85
2023-11-23T10:15:27.076Z,22.33
2023-11-23T10:17:53.878Z,21.77
2023-11-23T10:20:22.536Z,22.52
2023-11-23T10:22:50.553Z,23.15
2023-11-23T10:25:30.473Z,23.23
2023-11-23T10:27:57.395Z,23.73
2023-11-23T10:30:28.988Z,24.00
2023-11-23T10:32:57.460Z,24.40
2023-11-23T10:35:29.519Z,25.48
2023-11-23T10:37:56.971Z,28.70
2023-11-23T10:40:25.581Z,31.55
2023-11-23T10:42:54.002Z,32.97
2023-11-23T10:45:22.867Z,33.75
2023-11-23T10:47:52.603Z,36.47
2023-11-23T10:50:20.734Z,32.92
2023-11-23T10:52:48.442Z,31.98
2023-11-23T10:55:15.336Z,32.13
2023-11-23T10:57:53.226Z,33.40
2023-11-23T11:00:24.588Z,33.08
2023-11-23T11:02:54.044Z,31.25
2023-11-23T11:05:29.728Z,29.10
2023-11-23T11:08:02.588Z,30.63
2023-11-23T11:10:33.519Z,28.50
2023-11-23T11:13:14.393Z,29.52
2023-11-23T11:15:56.640Z,27.15
2023-11-23T11:18:28.166Z,25.98
2023-11-23T11:21:15.684Z,27.30
2023-11-23T11:23:46.329Z,25.60
2023-11-23T11:26:19.308Z,26.48
2023-11-23T11:28:55.181Z,25.60
2023-11-23T11:31:40.653Z,26.52
2023-11-23T11:34:24.022Z,24.83
2023-11-23T11:37:05.141Z,21.92
2023-11-23T11:39:33.056Z,21.77
2023-11-23T11:42:04.926Z,20.52
2023-11-23T11:44:34.687Z,21.50
2023-11-23T11:47:02.671Z,20.13
2023-11-23T11:49:29.684Z,18.63
2023-11-23T11:51:56.608Z,17.75
2023-11-23T11:54:25.175Z,17.27
2023-11-23T11:56:52.870Z,18.23
2023-11-23T11:59:25.116Z,18.33
2023-11-23T12:01:53.032Z,16.33
2023-11-23T12:04:21.295Z,21.33
2023-11-23T12:06:54.390Z,18.25
2023-11-23T12:09:34.065Z,16.35
2023-11-23T12:12:06.875Z,14.43
2023-11-23T12:14:35.284Z,12.32
2023-11-23T12:17:13.170Z,13.32
2023-11-23T12:19:52.800Z,16.05
2023-11-23T12:22:24.428Z,14.07
2023-11-23T12:24:52.406Z,14.10
2023-11-23T12:27:21.919Z,15.52
2023-11-23T12:29:49.701Z,14.68
2023-11-23T12:32:17.945Z,14.85
2023-11-23T12:34:44.902Z,14.88
2023-11-23T12:37:11.723Z,16.15
2023-11-23T12:39:39.116Z,17.13
2023-11-23T12:42:06.057Z,16.65
2023-11-23T12:44:36.739Z,16.65
2023-11-23T12:47:04.383Z,16.08
2023-11-23T12:49:31.401Z,16.48
2023-11-23T12:51:59.848Z,15.82
2023-11-23T12:55:08.231Z,15.68
2023-11-23T12:57:35.416Z,16.20
2023-11-23T13:00:03.624Z,15.55
2023-11-23T13:02:30.853Z,15.88
2023-11-23T13:04:59.178Z,15.35
2023-11-23T13:07:27.325Z,15.70
2023-11-23T13:09:54.189Z,16.73
2023-11-23T13:12:21.400Z,16.95
2023-11-23T13:14:51.026Z,15.70
2023-11-23T13:17:20.888Z,15.45
2023-11-23T13:19:49.188Z,15.98
2023-11-23T13:22:17.091Z,15.13
2023-11-23T13:24:44.609Z,15.55
2023-11-23T13:27:13.424Z,15.75
2023-11-23T13:29:40.408Z,15.68
2023-11-23T13:32:08.136Z,15.10
2023-11-23T13:34:35.799Z,15.63
2023-11-23T13:37:02.985Z,14.30
2023-11-23T13:39:32.452Z,14.30
2023-11-23T13:41:59.259Z,14.05
2023-11-23T13:44:26.151Z,14.65
2023-11-23T13:46:53.501Z,14.25
2023-11-23T13:49:22.193Z,13.75
2023-11-23T13:51:49.116Z,15.10
2023-11-23T13:54:16.015Z,18.33
2023-11-23T13:56:44.080Z,18.83
2023-11-23T13:59:12.424Z,15.07
2023-11-23T14:01:40.073Z,14.52
2023-11-23T14:04:07.787Z,14.40
2023-11-23T14:06:34.823Z,14.32
2023-11-23T14:09:03.633Z,14.15
2023-11-23T14:11:30.454Z,13.50
2023-11-23T14:13:57.354Z,14.60
2023-11-23T14:16:24.323Z,13.75
2023-11-23T14:18:51.333Z,14.13
2023-11-23T14:21:18.614Z,14.88
2023-11-23T14:23:50.108Z,15.15
2023-11-23T14:26:21.632Z,16.98
2023-11-23T14:28:51.268Z,15.55
2023-11-23T14:31:20.633Z,15.70
2023-11-23T14:33:47.782Z,14.60
2023-11-23T14:36:15.444Z,14.63
2023-11-23T14:38:42.390Z,15.13
2023-11-23T14:41:09.839Z,15.30
2023-11-23T14:43:36.692Z,14.80
2023-11-23T14:46:03.508Z,15.13
2023-11-23T14:48:30.405Z,14.38
2023-11-23T14:50:57.179Z,14.77
2023-11-23T14:53:28.550Z,15.07
2023-11-23T14:55:57.062Z,15.52
2023-11-23T14:58:24.240Z,15.15
2023-11-23T15:00:54.066Z,16.17
2023-11-23T15:03:21.268Z,16.20
2023-11-23T15:05:49.810Z,15.88
2023-11-23T15:08:17.759Z,15.40
2023-11-23T15:10:45.954Z,15.65
2023-11-23T15:13:18.773Z,17.60
2023-11-23T15:15:49.993Z,16.38
2023-11-23T15:18:16.870Z,17.52
2023-11-23T15:20:47.196Z,16.38
2023-11-23T15:23:14.163Z,17.10
2023-11-23T15:25:41.008Z,17.05
2023-11-23T15:28:11.822Z,17.60
2023-11-23T15:30:41.999Z,16.48
2023-11-23T15:33:09.374Z,18.67
2023-11-23T15:35:38.473Z,17.88
2023-11-23T15:38:06.223Z,18.55
2023-11-23T15:40:33.121Z,18.77
2023-11-23T15:42:59.930Z,18.05
2023-11-23T15:45:26.726Z,20.63
2023-11-23T15:47:53.844Z,19.73
2023-11-23T15:50:24.164Z,20.80
2023-11-23T15:52:56.242Z,21.83
2023-11-23T15:55:24.739Z,20.23
2023-11-23T15:57:52.163Z,24.42
2023-11-23T16:00:25.942Z,35.22
2023-11-23T16:02:55.740Z,55.00
2023-11-23T16:05:28.783Z,42.28
2023-11-23T16:07:56.129Z,43.40
2023-11-23T16:10:24.024Z,38.80
2023-11-23T16:12:50.911Z,41.17
2023-11-23T16:15:17.892Z,41.25
2023-11-23T16:17:45.565Z,44.53
2023-11-23T16:20:17.461Z,47.72
2023-11-23T16:22:47.663Z,40.20
2023-11-23T16:25:16.376Z,28.83
2023-11-23T16:27:43.181Z,30.88
2023-11-23T16:30:13.381Z,27.58
2023-11-23T16:32:41.700Z,25.80
2023-11-23T16:35:12.092Z,25.40
2023-11-23T16:37:39.963Z,26.58
2023-11-23T16:40:11.754Z,26.20
2023-11-23T16:42:42.046Z,25.02
2023-11-23T16:45:13.228Z,23.92
2023-11-23T16:47:44.086Z,23.75
2023-11-23T16:50:16.635Z,34.90
2023-11-23T16:52:43.614Z,59.58
2023-11-23T16:55:21.116Z,30.05
2023-11-23T16:57:48.735Z,26.83
2023-11-23T17:00:22.143Z,27.27
2023-11-23T17:02:49.437Z,24.70
2023-11-23T17:05:16.715Z,25.35
2023-11-23T17:07:43.979Z,25.42
2023-11-23T17:10:17.595Z,25.40
2023-11-23T17:12:45.254Z,26.10
2023-11-23T17:15:13.304Z,26.35
2023-11-23T17:17:46.232Z,25.50
2023-11-23T17:20:15.389Z,40.27
2023-11-23T17:22:46.249Z,48.95
2023-11-23T17:25:13.578Z,50.58
2023-11-23T17:27:42.846Z,41.85
2023-11-23T17:30:10.345Z,49.53
2023-11-23T17:32:39.850Z,44.50
2023-11-23T17:35:09.675Z,40.95
2023-11-23T17:37:37.198Z,38.05
2023-11-23T17:40:08.221Z,33.65
2023-11-23T17:42:35.491Z,31.83
2023-11-23T17:45:02.747Z,31.70
2023-11-23T17:47:29.772Z,26.63
2023-11-23T17:50:00.764Z,28.80
2023-11-23T17:52:27.995Z,34.85
2023-11-23T17:54:58.685Z,31.02
2023-11-23T17:57:26.241Z,30.90
2023-11-23T17:59:57.189Z,30.83
2023-11-23T18:02:24.761Z,32.80
2023-11-23T18:04:57.411Z,33.80
2023-11-23T18:07:25.311Z,42.35
2023-11-23T18:09:52.467Z,39.10
2023-11-23T18:12:19.722Z,35.35
2023-11-23T18:14:46.810Z,33.33
2023-11-23T18:17:14.017Z,28.90
2023-11-23T18:19:41.796Z,30.08
2023-11-23T18:22:09.390Z,33.33
2023-11-23T18:24:37.013Z,36.53
2023-11-23T18:27:05.133Z,36.88
2023-11-23T18:29:32.258Z,35.95
2023-11-23T18:31:59.373Z,36.30
2023-11-23T18:34:26.407Z,32.60
2023-11-23T18:36:53.526Z,31.98
2023-11-23T18:39:23.905Z,32.75
2023-11-23T18:41:50.967Z,36.30
2023-11-23T18:44:18.335Z,37.45
2023-11-23T18:46:45.637Z,36.28
2023-11-23T18:49:13.682Z,38.67
2023-11-23T18:51:41.582Z,41.20
2023-11-23T18:54:08.983Z,41.90
2023-11-23T18:56:37.158Z,38.38
2023-11-23T18:59:08.815Z,34.20
2023-11-23T19:01:47.746Z,36.38
2023-11-23T19:04:15.434Z,38.67
2023-11-23T19:06:54.459Z,34.22
2023-11-23T19:09:28.804Z,31.30
2023-11-23T19:11:57.989Z,32.45
2023-11-23T19:14:28.336Z,32.72
2023-11-23T19:16:55.591Z,31.15
2023-11-23T19:19:28.223Z,38.28
2023-11-23T19:22:03.220Z,37.28
2023-11-23T19:24:33.493Z,37.42
2023-11-23T19:27:04.379Z,37.25
2023-11-23T19:29:52.690Z,38.92
2023-11-23T19:32:41.412Z,38.70
2023-11-23T19:35:21.097Z,38.22
2023-11-23T19:37:56.316Z,43.92
2023-11-23T19:40:26.792Z,43.83
2023-11-23T19:43:23.169Z,43.75
2023-11-23T19:46:09.021Z,36.92
2023-11-23T19:48:36.625Z,38.42
2023-11-23T19:51:06.340Z,38.08
2023-11-23T19:53:41.747Z,41.05
2023-11-23T19:56:09.763Z,41.28
2023-11-23T19:58:38.627Z,38.08
2023-11-23T20:01:09.316Z,36.97
2023-11-23T20:03:36.556Z,36.92
2023-11-23T20:06:08.166Z,39.65
2023-11-23T20:08:48.946Z,38.53
2023-11-23T20:11:22.765Z,38.78
2023-11-23T20:14:21.795Z,42.95
2023-11-23T20:17:51.722Z,47.28
2023-11-23T20:20:01.796Z,42.95
2023-11-23T20:22:30.893Z,39.92
2023-11-23T20:25:08.573Z,39.90
2023-11-23T20:27:48.574Z,40.60
2023-11-23T20:30:27.334Z,40.70
2023-11-23T20:32:54.580Z,40.22
2023-11-23T20:35:23.599Z,41.03
2023-11-23T20:37:55.846Z,40.65
2023-11-23T20:40:24.479Z,45.17
2023-11-23T20:42:55.260Z,41.25
2023-11-23T20:45:39.652Z,40.22
2023-11-23T20:48:06.729Z,41.67
2023-11-23T20:51:01.936Z,42.25
2023-11-23T20:53:28.602Z,40.13
2023-11-23T20:55:58.997Z,39.05
2023-11-23T20:58:34.836Z,39.95
2023-11-23T21:01:17.201Z,39.17
2023-11-23T21:03:44.955Z,40.13
2023-11-23T21:06:20.149Z,45.65
2023-11-23T21:08:52.979Z,45.40
2023-11-23T21:11:24.379Z,47.30
2023-11-23T21:13:53.870Z,45.90
2023-11-23T21:16:46.501Z,43.75
2023-11-23T21:19:14.204Z,43.28
2023-11-23T21:21:44.397Z,43.53
2023-11-23T21:24:14.950Z,45.05
2023-11-23T21:26:42.208Z,46.17
2023-11-23T21:29:19.349Z,45.40
2023-11-23T21:31:46.545Z,44.33
2023-11-23T21:34:57.036Z,43.72
2023-11-23T21:37:24.088Z,43.33
2023-11-23T21:39:58.740Z,42.92
2023-11-23T21:42:26.000Z,45.75
2023-11-23T21:44:53.283Z,47.22
2023-11-23T21:47:20.521Z,48.30
2023-11-23T21:50:10.371Z,37.92
2023-11-23T21:52:38.568Z,38.38
2023-11-23T21:55:12.525Z,37.72
2023-11-23T21:57:47.458Z,37.55
2023-11-23T22:01:30.443Z,37.72
2023-11-23T22:03:28.457Z,38.83
2023-11-23T22:06:00.615Z,39.63
2023-11-23T22:08:31.124Z,39.85
2023-11-23T22:11:01.637Z,36.72
2023-11-23T22:13:33.874Z,35.17
2023-11-23T22:16:05.845Z,34.00
2023-11-23T22:18:38.387Z,33.03
2023-11-23T22:21:15.700Z,32.72
2023-11-23T22:23:42.687Z,31.65
2023-11-23T22:26:37.724Z,33.10
2023-11-23T22:29:03.192Z,31.52
2023-11-23T22:31:38.401Z,31.95
2023-11-23T22:34:09.759Z,32.20
2023-11-23T22:36:47.496Z,31.67
2023-11-23T22:39:20.632Z,33.22
2023-11-23T22:41:51.374Z,33.45
2023-11-23T22:44:20.460Z,35.95
2023-11-23T22:46:56.389Z,34.55
2023-11-23T22:49:24.932Z,35.03
2023-11-23T22:52:20.426Z,36.17
2023-11-23T22:55:25.350Z,36.42
2023-11-23T22:58:41.345Z,37.05
2023-11-23T23:01:39.968Z,36.38
2023-11-23T23:04:22.096Z,36.03
2023-11-23T23:06:55.827Z,35.08
2023-11-23T23:09:34.624Z,36.83
2023-11-23T23:12:02.079Z,36.67
2023-11-23T23:14:57.936Z,37.65
2023-11-23T23:17:30.705Z,42.53
2023-11-23T23:20:03.646Z,37.90
2023-11-23T23:22:39.793Z,37.50
2023-11-23T23:25:10.407Z,36.50
2023-11-23T23:28:10.379Z,44.65
2023-11-23T23:30:57.711Z,43.90
2023-11-23T23:33:28.482Z,47.88
2023-11-23T23:35:55.875Z,48.63
2023-11-23T23:38:34.618Z,49.22
2023-11-23T23:41:11.691Z,46.67
2023-11-23T23:44:30.136Z,45.67
2023-11-23T23:47:40.793Z,48.13
2023-11-23T23:50:58.541Z,46.70
2023-11-23T23:57:37.589Z,47.67
